Terminal Aerodrome Forecast
Issued by NWS Shreveport, LA

Home | Current Version | Previous Version | Text Only | Print | Product List | Glossary On
Versions: 1 2 3 4 5 6 7 8 9 10 11 12 13 14 15 16
000
FTUS44 KSHV 280058 AAA
TAFTYR
TAF AMD
KTYR 280058Z 2801/2824 VRB05KT P6SM VCTS SCT045CB BKN120 BKN250
      TEMPO 2801/2803 12005KT -TSRA BKN045CB
     FM280300 VRB03KT P6SM BKN045 BKN100
     FM280900 VRB03KT P6SM BKN070
      TEMPO 2814/2816 BKN030 OVC060
     FM281900 08008KT P6SM BKN045=

USA.gov is the U.S. government's official web portal to all federal, state and local government web resources and services.